createdAt,value
2023-05-10T00:00:05.993Z,9.01
2023-05-10T00:01:06.031Z,8.99
2023-05-10T00:02:06.070Z,8.66
2023-05-10T00:03:06.168Z,8.47
2023-05-10T00:04:06.090Z,8.33
2023-05-10T00:05:06.080Z,8.46
2023-05-10T00:06:06.065Z,8.69
2023-05-10T00:07:06.068Z,9.19
2023-05-10T00:08:06.070Z,8.94
2023-05-10T00:09:06.104Z,9.03
2023-05-10T00:10:06.112Z,9.17
2023-05-10T00:11:06.099Z,9.39
2023-05-10T00:12:06.137Z,9.80
2023-05-10T00:13:06.161Z,9.47
2023-05-10T00:14:06.135Z,8.94
2023-05-10T00:15:06.167Z,9.26
2023-05-10T00:16:06.176Z,9.28
2023-05-10T00:17:06.181Z,9.13
2023-05-10T00:18:06.245Z,9.19
2023-05-10T00:19:06.240Z,9.52
2023-05-10T00:20:06.212Z,9.76
2023-05-10T00:21:06.248Z,10.00
2023-05-10T00:22:06.277Z,10.31
2023-05-10T00:23:06.258Z,10.92
2023-05-10T00:24:06.282Z,11.19
2023-05-10T00:25:06.305Z,11.88
2023-05-10T00:26:06.304Z,12.21
2023-05-10T00:27:06.361Z,12.49
2023-05-10T00:28:06.366Z,12.76
2023-05-10T00:29:06.361Z,12.60
2023-05-10T00:30:06.374Z,12.35
2023-05-10T00:31:06.397Z,12.66
2023-05-10T00:32:06.430Z,12.65
2023-05-10T00:33:06.452Z,12.72
2023-05-10T00:34:06.425Z,12.50
2023-05-10T00:35:06.470Z,12.94
2023-05-10T00:36:06.490Z,12.48
2023-05-10T00:37:06.481Z,12.60
2023-05-10T00:38:06.523Z,12.08
2023-05-10T00:39:06.540Z,11.84
2023-05-10T00:40:06.548Z,12.10
2023-05-10T00:41:06.587Z,12.49
2023-05-10T00:42:06.557Z,12.83
2023-05-10T00:43:06.594Z,12.93
2023-05-10T00:44:06.587Z,13.48
2023-05-10T00:45:06.604Z,13.02
2023-05-10T00:46:06.693Z,12.51
2023-05-10T00:47:06.645Z,11.97
2023-05-10T00:48:06.751Z,12.14
2023-05-10T00:49:06.688Z,11.62
2023-05-10T00:50:06.705Z,11.63
2023-05-10T00:51:06.710Z,11.37
2023-05-10T00:52:06.752Z,10.72
2023-05-10T00:53:06.784Z,11.08
2023-05-10T00:54:06.832Z,11.46
2023-05-10T00:55:06.800Z,11.39
2023-05-10T00:56:06.869Z,10.92
2023-05-10T00:57:06.867Z,11.59
2023-05-10T00:58:06.900Z,11.23
2023-05-10T00:59:06.945Z,10.99
2023-05-10T01:00:06.982Z,11.72
2023-05-10T01:01:07.020Z,11.59
2023-05-10T01:02:07.011Z,12.03
2023-05-10T01:03:07.129Z,12.36
2023-05-10T01:04:07.044Z,11.88
2023-05-10T01:05:07.119Z,11.90
2023-05-10T01:06:07.125Z,11.63
2023-05-10T01:07:07.158Z,11.90
2023-05-10T01:08:07.158Z,11.83
2023-05-10T01:09:07.153Z,11.69
2023-05-10T01:10:07.214Z,11.74
2023-05-10T01:11:07.238Z,11.55
2023-05-10T01:12:07.304Z,11.69
2023-05-10T01:13:07.294Z,11.64
2023-05-10T01:14:07.351Z,11.53
2023-05-10T01:15:07.361Z,11.43
2023-05-10T01:16:07.503Z,11.62
2023-05-10T01:17:07.399Z,11.16
2023-05-10T01:18:07.439Z,11.33
2023-05-10T01:19:07.469Z,11.10
2023-05-10T01:20:07.476Z,10.97
2023-05-10T01:21:07.538Z,11.00
2023-05-10T01:22:07.564Z,10.83
2023-05-10T01:23:07.587Z,11.04
2023-05-10T01:24:07.621Z,10.80
2023-05-10T01:25:07.640Z,10.72
2023-05-10T01:26:07.663Z,11.00
2023-05-10T01:27:07.672Z,10.79
2023-05-10T01:28:07.693Z,10.63
2023-05-10T01:29:07.760Z,10.77
2023-05-10T01:30:15.650Z,10.65
2023-05-10T01:31:08.818Z,10.68
2023-05-10T01:32:07.760Z,10.68
2023-05-10T01:33:07.780Z,10.76
2023-05-10T01:34:07.721Z,10.75
2023-05-10T01:35:07.752Z,11.02
2023-05-10T01:36:07.738Z,11.14
2023-05-10T01:37:07.710Z,11.13
2023-05-10T01:38:07.720Z,11.00
2023-05-10T01:39:07.709Z,11.22
2023-05-10T01:40:07.677Z,11.14
2023-05-10T01:41:07.661Z,11.26
2023-05-10T01:42:07.645Z,11.27
2023-05-10T01:43:07.688Z,11.09
2023-05-10T01:44:07.666Z,11.21
2023-05-10T01:45:07.632Z,11.33
2023-05-10T01:46:07.610Z,11.28
2023-05-10T01:47:07.648Z,11.19
2023-05-10T01:48:07.793Z,11.27
2023-05-10T01:49:07.666Z,11.11
2023-05-10T01:50:07.943Z,11.46
2023-05-10T01:51:07.727Z,11.27
2023-05-10T01:52:07.735Z,11.49
2023-05-10T01:53:07.791Z,11.24
2023-05-10T01:54:07.805Z,11.22
2023-05-10T01:55:07.830Z,11.49
2023-05-10T01:56:07.899Z,11.28
2023-05-10T01:57:07.900Z,11.45
2023-05-10T01:58:07.934Z,11.57
2023-05-10T01:59:07.973Z,11.49
2023-05-10T02:00:07.999Z,11.54
2023-05-10T02:01:08.084Z,11.34
2023-05-10T02:02:08.085Z,11.43
2023-05-10T02:03:08.218Z,11.59
2023-05-10T02:04:08.130Z,11.43
2023-05-10T02:05:08.162Z,11.61
2023-05-10T02:06:08.183Z,11.57
2023-05-10T02:07:08.192Z,11.30
2023-05-10T02:08:09.140Z,11.23
2023-05-10T02:09:08.267Z,11.44
2023-05-10T02:10:08.301Z,11.45
2023-05-10T02:11:08.317Z,11.24
2023-05-10T02:12:08.360Z,11.32
2023-05-10T02:13:08.477Z,11.48
2023-05-10T02:14:08.454Z,11.30
2023-05-10T02:15:08.454Z,11.22
2023-05-10T02:16:08.526Z,11.03
2023-05-10T02:17:08.513Z,11.10
2023-05-10T02:18:08.564Z,10.93
2023-05-10T02:19:08.610Z,11.27
2023-05-10T02:20:08.599Z,11.26
2023-05-10T02:21:08.629Z,11.15
2023-05-10T02:22:08.657Z,11.14
2023-05-10T02:23:08.739Z,11.33
2023-05-10T02:24:08.741Z,10.93
2023-05-10T02:25:08.752Z,11.11
2023-05-10T02:26:08.847Z,10.98
2023-05-10T02:27:08.801Z,11.07
2023-05-10T02:28:08.901Z,11.15
2023-05-10T02:29:08.910Z,11.06
2023-05-10T02:30:08.882Z,10.85
2023-05-10T02:31:08.951Z,10.95
2023-05-10T02:32:09.064Z,10.86
2023-05-10T02:33:09.032Z,10.83
2023-05-10T02:34:09.014Z,10.96
2023-05-10T02:35:09.070Z,10.85
2023-05-10T02:36:09.069Z,10.99
2023-05-10T02:37:09.117Z,10.76
2023-05-10T02:38:09.161Z,10.81
2023-05-10T02:39:09.180Z,10.79
2023-05-10T02:40:09.191Z,10.69
2023-05-10T02:41:09.238Z,10.50
2023-05-10T02:42:09.280Z,10.39
2023-05-10T02:43:09.297Z,10.26
2023-05-10T02:44:09.344Z,10.00
2023-05-10T02:45:09.356Z,9.94
2023-05-10T02:46:09.458Z,9.91
2023-05-10T02:47:09.415Z,9.70
2023-05-10T02:48:09.544Z,9.52
2023-05-10T02:49:10.168Z,9.41
2023-05-10T02:50:09.484Z,9.61
2023-05-10T02:51:09.504Z,9.41
2023-05-10T02:52:09.550Z,9.31
2023-05-10T02:53:09.568Z,9.22
2023-05-10T02:54:09.565Z,8.87
2023-05-10T02:55:09.602Z,9.06
2023-05-10T02:56:09.677Z,9.02
2023-05-10T02:57:09.667Z,8.97
2023-05-10T02:58:09.720Z,8.76
2023-05-10T02:59:09.731Z,8.78
2023-05-10T03:00:09.766Z,8.71
2023-05-10T03:01:09.787Z,8.79
2023-05-10T03:02:09.815Z,8.58
2023-05-10T03:03:09.963Z,8.75
2023-05-10T03:04:09.889Z,8.67
2023-05-10T03:05:09.927Z,8.66
2023-05-10T03:06:09.955Z,8.77
2023-05-10T03:07:10.304Z,8.67
2023-05-10T03:08:10.022Z,8.77
2023-05-10T03:09:10.033Z,8.66
2023-05-10T03:10:10.078Z,8.56
2023-05-10T03:11:10.108Z,8.58
2023-05-10T03:12:10.156Z,8.82
2023-05-10T03:13:10.211Z,8.51
2023-05-10T03:14:10.193Z,8.61
2023-05-10T03:15:10.209Z,8.47
2023-05-10T03:16:10.401Z,8.55
2023-05-10T03:17:10.320Z,8.44
2023-05-10T03:18:10.374Z,8.56
2023-05-10T03:19:10.352Z,8.73
2023-05-10T03:20:10.412Z,8.49
2023-05-10T03:21:10.449Z,8.51
2023-05-10T03:22:10.498Z,8.42
2023-05-10T03:23:10.520Z,8.33
2023-05-10T03:24:10.527Z,8.52
2023-05-10T03:25:10.609Z,8.42
2023-05-10T03:26:10.608Z,8.47
2023-05-10T03:27:10.668Z,8.37
2023-05-10T03:28:10.665Z,8.25
2023-05-10T03:29:10.700Z,8.31
2023-05-10T03:30:10.732Z,8.50
2023-05-10T03:31:10.853Z,8.59
2023-05-10T03:32:10.795Z,8.26
2023-05-10T03:33:10.827Z,8.32
2023-05-10T03:34:10.877Z,8.36
2023-05-10T03:35:10.977Z,8.33
2023-05-10T03:36:10.936Z,8.27
2023-05-10T03:37:10.989Z,8.48
2023-05-10T03:38:11.025Z,8.59
2023-05-10T03:39:11.064Z,8.57
2023-05-10T03:40:11.073Z,8.77
2023-05-10T03:41:12.069Z,8.67
2023-05-10T03:42:11.160Z,8.78
2023-05-10T03:43:11.199Z,8.98
2023-05-10T03:44:11.168Z,9.06
2023-05-10T03:45:11.206Z,8.98
2023-05-10T03:46:11.278Z,9.09
2023-05-10T03:47:11.265Z,9.29
2023-05-10T03:48:11.328Z,9.16
2023-05-10T03:49:11.335Z,9.43
2023-05-10T03:50:11.386Z,9.41
2023-05-10T03:51:11.451Z,9.17
2023-05-10T03:52:11.437Z,9.27
2023-05-10T03:53:11.472Z,9.27
2023-05-10T03:54:11.483Z,9.15
2023-05-10T03:55:11.523Z,9.21
2023-05-10T03:56:11.530Z,9.12
2023-05-10T03:57:11.565Z,9.00
2023-05-10T03:58:11.647Z,9.14
2023-05-10T03:59:11.656Z,9.16
2023-05-10T04:00:11.700Z,9.08
2023-05-10T04:01:11.712Z,9.26
2023-05-10T04:02:11.735Z,9.05
2023-05-10T04:03:11.842Z,8.87
2023-05-10T04:04:11.825Z,8.71
2023-05-10T04:05:11.788Z,8.80
2023-05-10T04:06:11.843Z,8.89
2023-05-10T04:07:11.855Z,8.86
2023-05-10T04:08:11.921Z,8.78
2023-05-10T04:09:11.877Z,8.96
2023-05-10T04:10:11.959Z,8.95
2023-05-10T04:11:12.030Z,8.92
2023-05-10T04:12:12.005Z,8.69
2023-05-10T04:13:12.027Z,8.81
2023-05-10T04:14:12.010Z,8.72
2023-05-10T04:15:12.076Z,8.74
2023-05-10T04:16:12.079Z,8.58
2023-05-10T04:17:12.184Z,8.68
2023-05-10T04:18:12.163Z,8.62
2023-05-10T04:19:12.198Z,8.67
2023-05-10T04:20:12.215Z,8.31
2023-05-10T04:21:12.215Z,8.26
2023-05-10T04:22:12.263Z,7.98
2023-05-10T04:23:12.287Z,8.16
2023-05-10T04:24:13.472Z,7.93
2023-05-10T04:25:12.357Z,7.93
2023-05-10T04:26:12.377Z,7.89
2023-05-10T04:27:12.386Z,7.83
2023-05-10T04:28:12.468Z,7.78
2023-05-10T04:29:12.479Z,7.68
2023-05-10T04:30:12.535Z,7.82
2023-05-10T04:31:12.669Z,7.41
2023-05-10T04:32:12.533Z,7.49
2023-05-10T04:33:12.594Z,7.33
2023-05-10T04:34:12.641Z,7.39
2023-05-10T04:35:12.639Z,7.34
2023-05-10T04:36:12.671Z,7.32
2023-05-10T04:37:12.694Z,7.18
2023-05-10T04:38:12.767Z,7.14
2023-05-10T04:39:12.803Z,7.01
2023-05-10T04:40:12.851Z,7.16
2023-05-10T04:41:12.847Z,6.97
2023-05-10T04:42:12.926Z,6.99
2023-05-10T04:43:12.918Z,6.86
2023-05-10T04:44:12.967Z,6.84
2023-05-10T04:45:12.993Z,6.98
2023-05-10T04:46:13.069Z,6.75
2023-05-10T04:47:13.074Z,6.71
2023-05-10T04:48:13.116Z,6.65
2023-05-10T04:49:13.160Z,6.74
2023-05-10T04:50:13.167Z,6.67
2023-05-10T04:51:13.218Z,6.47
2023-05-10T04:52:13.268Z,6.42
2023-05-10T04:53:15.268Z,6.47
2023-05-10T04:54:13.459Z,6.50
2023-05-10T04:55:13.480Z,6.56
2023-05-10T04:56:13.603Z,6.64
2023-05-10T04:57:13.626Z,6.73
2023-05-10T04:58:13.667Z,7.01
2023-05-10T04:59:13.717Z,6.99
2023-05-10T05:01:40.346Z,0.50
2023-05-10T05:02:32.742Z,0.50
2023-05-10T05:03:32.722Z,0.50
2023-05-10T05:04:32.632Z,0.50
2023-05-10T05:05:32.606Z,0.50
2023-05-10T05:06:32.605Z,0.50
2023-05-10T05:07:32.606Z,0.51
2023-05-10T05:08:32.584Z,0.52
2023-05-10T05:09:32.553Z,0.51
2023-05-10T05:10:32.568Z,0.49
2023-05-10T05:11:32.572Z,0.50
2023-05-10T05:12:32.584Z,0.50
2023-05-10T05:13:32.586Z,0.50
2023-05-10T05:14:32.652Z,0.50
2023-05-10T05:15:32.660Z,0.50
2023-05-10T05:16:32.685Z,0.50
2023-05-10T05:17:32.683Z,0.51
2023-05-10T05:18:32.678Z,0.50
2023-05-10T05:19:32.648Z,0.51
2023-05-10T05:20:32.679Z,0.51
2023-05-10T05:21:32.742Z,0.52
2023-05-10T05:22:32.744Z,0.51
2023-05-10T05:23:32.763Z,0.53
2023-05-10T05:24:32.769Z,0.54
2023-05-10T05:25:32.796Z,0.54
2023-05-10T05:26:32.776Z,0.54
2023-05-10T05:27:32.787Z,0.55
2023-05-10T05:28:32.784Z,0.57
2023-05-10T05:29:32.753Z,0.58
2023-05-10T05:30:32.819Z,0.61
2023-05-10T05:31:32.845Z,0.66
2023-05-10T05:32:32.872Z,0.63
2023-05-10T05:33:32.856Z,0.55
2023-05-10T05:34:32.839Z,0.53
2023-05-10T05:35:32.801Z,0.57
2023-05-10T05:36:32.808Z,0.74
2023-05-10T05:37:32.860Z,0.87
2023-05-10T05:38:33.364Z,1.02
2023-05-10T05:39:32.878Z,1.07
2023-05-10T05:40:32.927Z,1.17
2023-05-10T05:41:32.988Z,1.15
2023-05-10T05:42:33.057Z,1.02
2023-05-10T05:43:33.468Z,0.97
2023-05-10T05:44:33.128Z,0.96
2023-05-10T05:45:33.151Z,0.94
2023-05-10T05:46:40.919Z,0.87
2023-05-10T05:47:33.250Z,0.84
2023-05-10T05:48:33.449Z,0.82
2023-05-10T05:49:33.182Z,0.90
2023-05-10T05:50:33.194Z,0.96
2023-05-10T05:51:33.177Z,1.16
2023-05-10T05:52:33.185Z,1.07
2023-05-10T05:53:33.126Z,0.87
2023-05-10T05:54:33.388Z,0.84
2023-05-10T05:55:33.116Z,0.76
2023-05-10T05:56:33.121Z,0.69
2023-05-10T05:57:33.316Z,0.54
2023-05-10T05:58:33.429Z,0.50
2023-05-10T05:59:33.407Z,0.55
2023-05-10T06:00:33.118Z,0.73
2023-05-10T06:01:33.150Z,0.77
2023-05-10T06:02:33.187Z,0.77
2023-05-10T06:03:33.162Z,0.80
2023-05-10T06:04:33.469Z,0.79
2023-05-10T06:05:33.118Z,0.77
2023-05-10T06:06:33.157Z,0.79
2023-05-10T06:07:33.241Z,0.78
2023-05-10T06:08:33.205Z,0.78
2023-05-10T06:09:33.206Z,0.76
2023-05-10T06:10:33.194Z,0.75
2023-05-10T06:11:33.275Z,0.66
2023-05-10T06:12:33.286Z,0.64
2023-05-10T06:13:33.712Z,0.64
2023-05-10T06:14:33.884Z,0.70
2023-05-10T06:15:33.462Z,0.74
2023-05-10T06:16:33.558Z,0.77
2023-05-10T06:17:33.650Z,0.81
2023-05-10T06:18:33.648Z,0.80
2023-05-10T06:19:34.409Z,0.81
2023-05-10T06:20:33.766Z,0.86
2023-05-10T06:21:33.839Z,0.86
2023-05-10T06:22:33.872Z,0.89
2023-05-10T06:23:33.968Z,0.94
2023-05-10T06:24:34.017Z,0.96
2023-05-10T06:25:34.026Z,0.97
2023-05-10T06:26:34.148Z,1.03
2023-05-10T06:27:34.297Z,1.03
2023-05-10T06:28:34.238Z,1.06
2023-05-10T06:29:34.340Z,1.03
2023-05-10T06:30:34.377Z,1.03
2023-05-10T06:31:34.434Z,1.03
2023-05-10T06:32:34.509Z,1.05
2023-05-10T06:33:34.569Z,1.07
2023-05-10T06:34:34.628Z,1.04
2023-05-10T06:35:34.628Z,1.09
2023-05-10T06:36:34.645Z,1.08
2023-05-10T06:37:34.640Z,1.05
2023-05-10T06:38:34.722Z,1.05
2023-05-10T06:39:34.834Z,1.28
2023-05-10T06:40:34.875Z,1.21
2023-05-10T06:41:34.889Z,1.18
2023-05-10T06:42:34.978Z,1.20
2023-05-10T06:43:34.979Z,1.20
2023-05-10T06:44:35.387Z,1.21
2023-05-10T06:45:35.022Z,1.19
2023-05-10T06:47:54.045Z,0.50
2023-05-10T06:48:53.981Z,0.50
2023-05-10T06:49:53.942Z,0.50
2023-05-10T06:50:53.952Z,0.50
2023-05-10T06:51:53.902Z,0.50
2023-05-10T06:52:53.922Z,0.50
2023-05-10T06:53:53.904Z,0.50
2023-05-10T06:54:53.911Z,0.51
2023-05-10T06:55:53.861Z,0.52
2023-05-10T06:56:53.894Z,0.52
2023-05-10T06:57:53.890Z,0.54
2023-05-10T06:58:53.902Z,0.54
2023-05-10T06:59:53.844Z,0.54
2023-05-10T07:00:53.981Z,0.56
2023-05-10T07:01:53.889Z,0.52
2023-05-10T07:02:53.874Z,0.50
2023-05-10T07:03:53.826Z,0.51
2023-05-10T07:04:53.881Z,0.50
2023-05-10T07:05:53.805Z,0.50
2023-05-10T07:06:53.799Z,0.52
2023-05-10T07:07:53.849Z,0.52
2023-05-10T07:08:53.803Z,0.54
2023-05-10T07:09:54.171Z,0.51
2023-05-10T07:10:53.784Z,0.51
2023-05-10T07:11:53.753Z,0.51
2023-05-10T07:12:53.851Z,0.50
2023-05-10T07:13:53.729Z,0.50
2023-05-10T07:14:53.769Z,0.50
2023-05-10T07:15:53.789Z,0.61
2023-05-10T07:16:53.751Z,0.75
2023-05-10T07:17:53.813Z,0.91
2023-05-10T07:18:53.726Z,1.12
2023-05-10T07:19:53.735Z,1.19
2023-05-10T07:20:53.799Z,1.25
2023-05-10T07:21:53.681Z,1.23
2023-05-10T07:22:53.704Z,1.23
2023-05-10T07:23:53.696Z,0.94
2023-05-10T07:24:53.712Z,0.96
2023-05-10T07:25:53.713Z,0.94
2023-05-10T07:26:53.680Z,0.97
2023-05-10T07:27:53.628Z,0.92
2023-05-10T07:28:53.655Z,0.90
2023-05-10T07:29:53.705Z,0.82
2023-05-10T07:30:53.665Z,0.75
2023-05-10T07:31:54.481Z,0.75
2023-05-10T07:32:53.808Z,0.89
2023-05-10T07:33:53.820Z,0.97
2023-05-10T07:34:53.874Z,0.99
2023-05-10T07:35:53.893Z,1.23
2023-05-10T07:36:53.965Z,1.12
2023-05-10T07:37:54.000Z,1.08
2023-05-10T07:38:54.034Z,1.00
2023-05-10T07:39:54.121Z,1.37
2023-05-10T07:40:54.117Z,1.28
2023-05-10T07:41:54.155Z,1.22
2023-05-10T07:42:54.208Z,1.18
2023-05-10T07:43:54.249Z,1.10
2023-05-10T07:44:54.339Z,1.06
2023-05-10T07:45:56.105Z,0.98
2023-05-10T07:46:54.362Z,0.93
2023-05-10T07:47:54.464Z,0.97
2023-05-10T07:48:54.484Z,1.00
2023-05-10T07:49:54.557Z,1.10
2023-05-10T07:50:54.570Z,1.20
2023-05-10T07:51:54.600Z,1.04
2023-05-10T07:52:54.599Z,0.74
2023-05-10T07:53:54.669Z,0.55
2023-05-10T07:54:54.721Z,0.50
2023-05-10T07:55:54.801Z,0.52
2023-05-10T07:56:54.808Z,0.69
2023-05-10T07:57:54.832Z,0.78
2023-05-10T07:58:54.882Z,0.94
2023-05-10T07:59:54.955Z,1.08
2023-05-10T08:00:54.998Z,1.15
2023-05-10T08:01:55.077Z,1.32
2023-05-10T08:02:55.129Z,1.41
2023-05-10T08:03:55.273Z,1.50
2023-05-10T08:04:55.195Z,1.51
2023-05-10T08:05:55.223Z,1.57
2023-05-10T08:06:55.289Z,1.58
2023-05-10T08:07:55.300Z,1.63
2023-05-10T08:08:55.338Z,1.69
2023-05-10T08:09:55.450Z,1.65
2023-05-10T08:10:55.635Z,1.69
2023-05-10T08:11:55.468Z,1.77
2023-05-10T08:12:55.567Z,1.75
2023-05-10T08:13:55.575Z,1.71
2023-05-10T08:14:55.600Z,1.64
2023-05-10T08:15:56.528Z,1.67
2023-05-10T08:16:55.723Z,1.63
2023-05-10T08:17:55.782Z,1.55
2023-05-10T08:18:55.848Z,1.28
2023-05-10T08:19:55.870Z,1.04
2023-05-10T08:20:55.927Z,0.92
2023-05-10T08:21:55.924Z,1.04
2023-05-10T08:22:55.943Z,0.92
2023-05-10T08:23:56.014Z,0.74
2023-05-10T08:24:56.054Z,0.65
2023-05-10T08:25:56.160Z,0.57
2023-05-10T08:26:56.154Z,0.56
2023-05-10T08:27:56.289Z,0.54
2023-05-10T08:28:56.293Z,0.54
2023-05-10T08:29:56.320Z,0.53
2023-05-10T08:30:56.715Z,0.52
2023-05-10T08:31:56.311Z,0.51
2023-05-10T08:32:56.315Z,0.50
2023-05-10T08:33:56.290Z,0.51
2023-05-10T08:34:56.302Z,0.52
2023-05-10T08:35:56.664Z,0.51
2023-05-10T08:36:56.323Z,0.50
2023-05-10T08:37:56.321Z,0.51
2023-05-10T08:38:56.309Z,0.51
2023-05-10T08:39:56.323Z,0.51
2023-05-10T08:40:56.346Z,0.53
2023-05-10T08:41:56.352Z,0.51
2023-05-10T08:42:56.348Z,0.56
2023-05-10T08:43:56.367Z,0.59
2023-05-10T08:44:56.315Z,0.55
2023-05-10T08:45:56.685Z,0.57
2023-05-10T08:46:56.325Z,0.58
2023-05-10T08:47:56.328Z,0.57
2023-05-10T08:48:56.318Z,0.54
2023-05-10T08:49:56.299Z,0.53
2023-05-10T08:50:56.713Z,0.53
2023-05-10T08:51:56.381Z,0.52
2023-05-10T08:52:56.263Z,0.55
2023-05-10T08:53:56.274Z,0.64
2023-05-10T08:54:56.321Z,0.84
2023-05-10T08:55:56.387Z,1.00
2023-05-10T08:56:56.493Z,1.08
2023-05-10T08:57:56.504Z,1.15
2023-05-10T08:58:56.567Z,1.14
2023-05-10T08:59:56.608Z,1.10
2023-05-10T09:00:57.210Z,1.07
2023-05-10T09:01:56.707Z,1.20
2023-05-10T09:02:56.779Z,1.32
2023-05-10T09:03:56.854Z,1.39
2023-05-10T09:04:56.970Z,1.41
2023-05-10T09:05:57.176Z,1.36
2023-05-10T09:06:56.952Z,1.33
2023-05-10T09:07:56.958Z,1.34
2023-05-10T09:08:57.036Z,1.34
2023-05-10T09:09:57.094Z,1.29
2023-05-10T09:10:57.164Z,1.27
2023-05-10T09:11:57.204Z,1.28
2023-05-10T09:12:59.214Z,1.22
2023-05-10T09:13:57.302Z,1.25
2023-05-10T09:14:57.325Z,1.22
2023-05-10T09:16:00.276Z,1.18
2023-05-10T09:16:57.438Z,1.18
2023-05-10T09:17:57.406Z,1.18
2023-05-10T09:18:57.425Z,1.12
2023-05-10T09:19:57.322Z,1.10
2023-05-10T09:20:57.356Z,1.05
2023-05-10T09:21:57.346Z,1.05
2023-05-10T09:22:57.331Z,1.06
2023-05-10T09:23:57.299Z,1.05
2023-05-10T09:24:57.306Z,1.10
2023-05-10T09:25:57.719Z,1.12
2023-05-10T09:26:57.257Z,1.16
2023-05-10T09:27:57.267Z,1.11
2023-05-10T09:28:57.305Z,1.12
2023-05-10T09:29:58.387Z,1.18
2023-05-10T09:30:57.719Z,1.21
2023-05-10T09:31:57.457Z,1.25
2023-05-10T09:32:57.512Z,1.24
2023-05-10T09:33:57.526Z,1.24
2023-05-10T09:34:57.569Z,1.21
2023-05-10T09:35:57.714Z,1.05
2023-05-10T09:36:57.651Z,1.10
2023-05-10T09:37:58.658Z,1.17
2023-05-10T09:38:57.715Z,1.08
2023-05-10T09:39:57.773Z,0.96
2023-05-10T09:40:58.234Z,0.89
2023-05-10T09:41:57.808Z,0.83
2023-05-10T09:42:58.308Z,0.76
2023-05-10T09:43:57.843Z,0.72
2023-05-10T09:44:57.864Z,0.73
2023-05-10T09:45:58.266Z,0.77
2023-05-10T09:46:57.955Z,0.78
2023-05-10T09:47:58.054Z,0.80
2023-05-10T09:48:58.037Z,0.79
2023-05-10T09:49:58.065Z,0.82
2023-05-10T09:50:58.718Z,0.86
2023-05-10T09:51:58.152Z,0.97
2023-05-10T09:52:58.203Z,1.00
2023-05-10T09:53:58.279Z,1.01
2023-05-10T09:54:58.268Z,1.04
2023-05-10T09:55:58.331Z,1.11
2023-05-10T09:56:58.333Z,1.16
2023-05-10T09:57:58.360Z,1.20
2023-05-10T09:58:58.432Z,1.26
2023-05-10T09:59:58.480Z,1.28
2023-05-10T10:00:58.692Z,1.37
2023-05-10T10:01:58.596Z,1.43
2023-05-10T10:02:58.667Z,1.48
2023-05-10T10:03:58.646Z,1.49
2023-05-10T10:04:58.694Z,1.55
2023-05-10T10:05:58.713Z,1.51
2023-05-10T10:06:58.730Z,1.52
2023-05-10T10:07:58.809Z,1.48
2023-05-10T10:08:58.839Z,1.47
2023-05-10T10:09:58.901Z,1.49
2023-05-10T10:10:59.217Z,1.51
2023-05-10T10:11:58.977Z,1.54
2023-05-10T10:12:58.974Z,1.61
2023-05-10T10:13:58.999Z,1.56
2023-05-10T10:14:59.053Z,1.57
2023-05-10T10:15:59.081Z,1.54
2023-05-10T10:17:08.101Z,1.58
2023-05-10T10:18:00.198Z,1.58
2023-05-10T10:18:59.198Z,1.58
2023-05-10T10:19:59.117Z,1.06
2023-05-10T10:20:59.117Z,0.66
2023-05-10T10:21:59.196Z,0.51
2023-05-10T10:22:59.134Z,0.52
2023-05-10T10:23:59.040Z,0.50
2023-05-10T10:24:59.068Z,0.50
2023-05-10T10:25:59.058Z,0.50
2023-05-10T10:26:59.230Z,0.50
2023-05-10T10:27:59.034Z,0.47
2023-05-10T10:28:59.055Z,0.47
2023-05-10T10:29:59.053Z,0.58
2023-05-10T10:30:59.011Z,0.64
2023-05-10T10:31:59.230Z,0.65
2023-05-10T10:32:59.062Z,0.67
2023-05-10T10:33:59.062Z,0.66
2023-05-10T10:34:58.997Z,0.60
2023-05-10T10:35:59.024Z,0.69
2023-05-10T10:36:59.196Z,0.64
2023-05-10T10:37:59.003Z,0.89
2023-05-10T10:38:59.306Z,0.93
2023-05-10T10:39:58.932Z,0.89
2023-05-10T10:40:58.980Z,1.05
2023-05-10T10:41:59.241Z,1.18
2023-05-10T10:42:58.994Z,0.74
2023-05-10T10:43:58.989Z,0.50
2023-05-10T10:44:59.447Z,0.50
2023-05-10T10:45:59.077Z,0.42
2023-05-10T10:46:59.236Z,0.50
2023-05-10T10:47:59.162Z,0.42
2023-05-10T10:48:59.184Z,0.48
2023-05-10T10:49:59.242Z,0.53
2023-05-10T10:50:59.252Z,0.51
2023-05-10T10:51:59.415Z,0.48
2023-05-10T10:52:59.367Z,0.52
2023-05-10T10:53:59.387Z,0.56
2023-05-10T10:54:59.313Z,0.55
2023-05-10T10:55:59.447Z,0.59
2023-05-10T10:56:59.746Z,0.62
2023-05-10T10:57:59.453Z,0.67
2023-05-10T10:58:59.494Z,0.67
2023-05-10T10:59:59.583Z,0.71
2023-05-10T11:00:59.566Z,0.76
2023-05-10T11:01:59.605Z,0.85
2023-05-10T11:02:59.632Z,0.84
2023-05-10T11:03:59.746Z,0.76
2023-05-10T11:04:59.722Z,0.68
2023-05-10T11:05:59.720Z,0.71
2023-05-10T11:06:59.718Z,0.80
2023-05-10T11:07:59.743Z,0.86
2023-05-10T11:08:59.731Z,0.94
2023-05-10T11:09:59.739Z,0.90
2023-05-10T11:10:59.774Z,0.86
2023-05-10T11:11:59.759Z,0.86
2023-05-10T11:12:59.751Z,0.74
2023-05-10T11:14:00.145Z,0.63
2023-05-10T11:14:59.805Z,0.52
2023-05-10T11:15:59.783Z,0.51
2023-05-10T11:16:59.843Z,0.60
2023-05-10T11:17:59.965Z,0.69
2023-05-10T11:19:00.058Z,0.81
2023-05-10T11:19:59.994Z,0.84
2023-05-10T11:21:00.030Z,0.96
2023-05-10T11:22:00.387Z,1.07
2023-05-10T11:23:00.621Z,0.95
2023-05-10T11:24:00.055Z,0.78
2023-05-10T11:25:00.088Z,0.88
2023-05-10T11:26:00.137Z,1.21
2023-05-10T11:27:00.109Z,1.78
2023-05-10T11:28:00.312Z,1.65
2023-05-10T11:29:00.233Z,1.86
2023-05-10T11:30:00.277Z,2.07
2023-05-10T11:31:00.348Z,2.94
2023-05-10T11:32:00.290Z,2.65
2023-05-10T11:33:00.813Z,2.32
2023-05-10T11:34:00.328Z,2.51
2023-05-10T11:35:00.331Z,2.35
2023-05-10T11:36:00.415Z,2.48
2023-05-10T11:37:00.437Z,2.49
2023-05-10T11:38:00.734Z,2.34
2023-05-10T11:39:00.564Z,1.87
2023-05-10T11:40:00.883Z,1.80
2023-05-10T11:41:00.663Z,2.04
2023-05-10T11:42:00.702Z,2.19
2023-05-10T11:43:00.776Z,1.66
2023-05-10T11:44:00.754Z,1.29
2023-05-10T11:45:00.807Z,1.43
2023-05-10T11:46:00.878Z,1.60
2023-05-10T11:47:00.915Z,1.39
2023-05-10T11:48:00.991Z,1.00
2023-05-10T11:49:00.976Z,0.90
2023-05-10T11:50:01.064Z,0.84
2023-05-10T11:51:00.990Z,0.91
2023-05-10T11:52:00.956Z,0.86
2023-05-10T11:53:01.051Z,0.71
2023-05-10T11:54:00.997Z,0.64
2023-05-10T11:55:01.029Z,0.54
2023-05-10T11:56:01.062Z,0.50
2023-05-10T11:57:01.004Z,0.54
2023-05-10T11:58:01.072Z,0.61
2023-05-10T11:59:01.049Z,0.55
2023-05-10T12:00:01.076Z,0.53
2023-05-10T12:01:01.110Z,0.51
2023-05-10T12:02:01.159Z,0.54
2023-05-10T12:03:01.304Z,0.53
2023-05-10T12:04:01.614Z,0.55
2023-05-10T12:05:01.437Z,0.64
2023-05-10T12:06:01.258Z,0.70
2023-05-10T12:07:01.316Z,0.78
2023-05-10T12:08:01.295Z,1.29
2023-05-10T12:09:01.334Z,2.17
2023-05-10T12:10:01.303Z,3.11
2023-05-10T12:11:01.407Z,4.07
2023-05-10T12:12:01.451Z,4.91
2023-05-10T12:13:01.494Z,5.92
2023-05-10T12:14:01.551Z,7.79
2023-05-10T12:15:01.571Z,9.43
2023-05-10T12:16:01.569Z,9.64
2023-05-10T12:17:01.650Z,9.27
2023-05-10T12:18:01.656Z,9.06
2023-05-10T12:19:01.779Z,9.75
2023-05-10T12:20:01.655Z,9.83
2023-05-10T12:21:01.689Z,12.18
2023-05-10T12:22:01.656Z,14.51
2023-05-10T12:23:01.660Z,16.46
2023-05-10T12:24:01.664Z,17.98
2023-05-10T12:25:01.665Z,11.09
2023-05-10T12:26:01.624Z,9.91
2023-05-10T12:27:01.691Z,13.91
2023-05-10T12:28:01.717Z,16.46
2023-05-10T12:29:01.690Z,17.55
2023-05-10T12:30:02.075Z,14.87
2023-05-10T12:31:01.723Z,7.31
2023-05-10T12:32:01.765Z,4.57
2023-05-10T12:33:01.937Z,7.69
2023-05-10T12:34:01.743Z,16.26
2023-05-10T12:35:01.781Z,21.47
2023-05-10T12:36:01.826Z,20.88
2023-05-10T12:37:01.826Z,21.32
2023-05-10T12:38:01.815Z,21.19
2023-05-10T12:39:01.822Z,20.50
2023-05-10T12:40:01.870Z,20.01
2023-05-10T12:41:01.867Z,19.35
2023-05-10T12:42:01.847Z,18.74
2023-05-10T12:43:01.920Z,19.12
2023-05-10T12:44:01.854Z,19.14
2023-05-10T12:45:01.843Z,18.28
2023-05-10T12:46:01.891Z,17.99
2023-05-10T12:47:01.875Z,18.62
2023-05-10T12:48:01.909Z,18.16
2023-05-10T12:49:09.150Z,18.15
2023-05-10T12:50:02.882Z,18.17
2023-05-10T12:51:01.834Z,18.19
2023-05-10T12:52:01.859Z,17.76
2023-05-10T12:53:01.867Z,17.56
2023-05-10T12:54:01.826Z,17.35
2023-05-10T12:55:01.816Z,16.52
2023-05-10T12:56:01.793Z,15.80
2023-05-10T12:57:01.801Z,15.76
2023-05-10T12:58:01.805Z,15.31
2023-05-10T12:59:01.821Z,14.76
2023-05-10T13:00:01.784Z,13.86
2023-05-10T13:01:02.756Z,14.74
2023-05-10T13:02:01.728Z,15.53
2023-05-10T13:03:01.802Z,16.61
2023-05-10T13:04:01.756Z,16.18
2023-05-10T13:05:01.772Z,17.12
2023-05-10T13:06:01.777Z,18.15
2023-05-10T13:07:01.782Z,18.02
2023-05-10T13:08:01.785Z,17.99
2023-05-10T13:09:01.789Z,17.63
2023-05-10T13:10:01.829Z,17.81
2023-05-10T13:11:01.813Z,17.57
2023-05-10T13:12:01.827Z,17.91
2023-05-10T13:13:02.331Z,17.79
2023-05-10T13:14:01.902Z,17.09